Time;durP1;ratioP1;P1;durP2;ratioP2;P2;SDS_P1;SDS_P2;PMS_P1;PMS_P2;Temp;Humidity;BMP_temperature;BMP_pressure;BME280_temperature;BME280_humidity;BME280_pressure;Samples;Min_cycle;Max_cycle;Signal;HPM_P1;HPM_P2
2023/03/13 00:01:16;;;;;;;12.55;9.52;;;26.70;95.90;;;;;;5015097;28;20025;-53
2023/03/13 00:04:07;;;;;;;12.20;9.52;;;26.70;95.90;;;;;;5006567;28;20038;-52
2023/03/13 00:06:36;;;;;;;11.80;9.30;;;26.70;95.90;;;;;;5021079;28;20310;-55
2023/03/13 00:09:06;;;;;;;12.27;10.23;;;26.60;95.90;;;;;;5023638;28;20033;-45
2023/03/13 00:11:35;;;;;;;12.75;7.80;;;26.60;95.80;;;;;;5023982;28;20065;-48
2023/03/13 00:14:06;;;;;;;11.50;8.90;;;26.60;95.90;;;;;;5023897;28;20030;-51
2023/03/13 00:16:34;;;;;;;10.83;9.17;;;26.60;96.00;;;;;;5027698;28;20096;-45
2023/03/13 00:19:04;;;;;;;15.10;8.88;;;26.60;96.20;;;;;;5025240;28;20335;-48
2023/03/13 00:21:31;;;;;;;11.27;8.38;;;26.60;96.00;;;;;;5012255;28;20030;-51
2023/03/13 00:23:59;;;;;;;14.57;8.52;;;26.60;96.00;;;;;;5027259;28;20059;-49
2023/03/13 00:26:27;;;;;;;9.18;7.97;;;26.60;96.10;;;;;;5027402;28;20021;-52
2023/03/13 00:28:54;;;;;;;12.05;8.43;;;26.60;96.10;;;;;;5027313;28;20034;-53
2023/03/13 00:31:26;;;;;;;14.15;7.72;;;26.50;96.10;;;;;;5020467;28;20294;-56
2023/03/13 00:33:59;;;;;;;10.23;7.00;;;26.50;96.20;;;;;;5016014;28;20026;-50
2023/03/13 00:36:29;;;;;;;12.45;7.30;;;26.60;96.20;;;;;;5008526;28;20022;-50
2023/03/13 00:38:58;;;;;;;10.52;6.35;;;26.60;96.10;;;;;;5016637;28;20057;-49
2023/03/13 00:41:33;;;;;;;13.65;12.25;;;26.50;96.10;;;;;;5027414;28;20029;-51
2023/03/13 00:44:00;;;;;;;15.98;14.48;;;26.50;96.10;;;;;;5019869;28;20234;-47
2023/03/13 00:46:28;;;;;;;12.57;10.30;;;26.50;96.10;;;;;;5012174;28;20329;-46
2023/03/13 00:48:56;;;;;;;12.05;8.68;;;26.50;96.20;;;;;;5007003;28;20072;-48
2023/03/13 00:51:25;;;;;;;9.98;7.45;;;26.50;96.20;;;;;;5012823;28;20049;-50
2023/03/13 00:53:53;;;;;;;11.38;8.02;;;26.50;96.10;;;;;;5026549;28;20118;-50
2023/03/13 00:56:20;;;;;;;10.15;7.25;;;26.50;96.20;;;;;;5019591;28;20045;-54
2023/03/13 00:58:49;;;;;;;10.20;7.85;;;26.50;96.20;;;;;;5017403;28;20073;-49
2023/03/13 01:01:21;;;;;;;11.50;7.45;;;26.50;96.20;;;;;;5007038;28;20034;-49
2023/03/13 01:03:51;;;;;;;11.38;7.00;;;26.50;96.30;;;;;;5006785;28;20038;-51
2023/03/13 01:06:26;;;;;;;12.38;6.75;;;26.50;96.50;;;;;;5006792;28;20061;-48
2023/03/13 01:08:55;;;;;;;12.10;7.00;;;26.50;96.30;;;;;;5006588;28;20033;-46
2023/03/13 01:11:24;;;;;;;8.20;6.00;;;26.50;96.40;;;;;;5017769;28;20038;-49
2023/03/13 01:13:55;;;;;;;15.43;6.85;;;26.50;96.40;;;;;;5006543;28;20032;-49
2023/03/13 01:16:23;;;;;;;10.02;6.18;;;26.50;96.40;;;;;;5007061;28;20026;-50
2023/03/13 01:18:54;;;;;;;10.40;6.65;;;26.50;96.40;;;;;;5006714;28;20314;-49
2023/03/13 01:21:23;;;;;;;9.55;6.10;;;26.50;96.40;;;;;;5007158;28;20345;-51
2023/03/13 01:23:51;;;;;;;9.80;5.97;;;26.40;96.30;;;;;;5010639;28;20030;-50
2023/03/13 01:26:24;;;;;;;8.95;5.72;;;26.40;96.20;;;;;;5005623;28;20105;-50
2023/03/13 01:28:51;;;;;;;10.68;6.22;;;26.40;96.10;;;;;;5006433;28;20082;-51
2023/03/13 01:31:29;;;;;;;9.63;5.57;;;26.40;96.10;;;;;;5006968;28;20100;-53
2023/03/13 01:33:58;;;;;;;13.73;6.07;;;26.40;96.00;;;;;;5017234;28;20033;-49
2023/03/13 01:36:26;;;;;;;12.15;5.90;;;26.40;95.90;;;;;;5006900;28;20038;-46
2023/03/13 01:38:55;;;;;;;9.90;5.80;;;26.40;95.90;;;;;;5016384;28;20057;-51
2023/03/13 01:41:23;;;;;;;9.50;5.30;;;26.40;95.80;;;;;;5006413;28;20042;-46
2023/03/13 01:43:49;;;;;;;12.30;5.80;;;26.40;95.80;;;;;;5005795;28;20342;-50
2023/03/13 01:46:26;;;;;;;10.82;5.43;;;26.40;95.70;;;;;;5006399;28;20045;-46
2023/03/13 01:48:59;;;;;;;8.93;4.75;;;26.40;95.70;;;;;;5004756;28;20042;-49
2023/03/13 01:51:33;;;;;;;9.05;5.13;;;26.40;95.60;;;;;;5006333;28;20018;-47
2023/03/13 01:54:14;;;;;;;8.15;4.88;;;26.40;95.50;;;;;;5005486;28;20030;-51
2023/03/13 01:57:05;;;;;;;9.07;4.95;;;26.40;95.50;;;;;;5016370;28;20040;-49
2023/03/13 01:59:59;;;;;;;8.85;5.20;;;26.40;95.50;;;;;;5005907;28;20050;-50
2023/03/13 02:02:27;;;;;;;10.43;5.63;;;26.40;95.40;;;;;;5015422;28;20045;-50
2023/03/13 02:05:00;;;;;;;8.50;4.75;;;26.40;95.40;;;;;;5019539;28;20038;-47
2023/03/13 02:07:37;;;;;;;10.93;5.03;;;26.40;95.30;;;;;;5019221;28;20025;-56
2023/03/13 02:10:04;;;;;;;18.98;4.93;;;26.40;95.30;;;;;;5033677;28;20206;-48
2023/03/13 02:12:37;;;;;;;7.82;4.70;;;26.30;95.20;;;;;;5035590;28;20017;-55
2023/03/13 02:15:19;;;;;;;13.02;4.97;;;26.30;95.20;;;;;;5032276;28;20254;-49
2023/03/13 02:17:59;;;;;;;11.05;4.65;;;26.30;95.10;;;;;;5032600;28;20079;-52
2023/03/13 02:20:25;;;;;;;8.13;4.60;;;26.30;95.10;;;;;;5033002;28;20323;-51
2023/03/13 02:23:13;;;;;;;10.15;5.35;;;26.30;95.00;;;;;;5034268;28;20036;-48
2023/03/13 02:25:52;;;;;;;9.38;4.97;;;26.30;94.90;;;;;;5036008;28;20025;-50
2023/03/13 02:28:38;;;;;;;7.13;5.10;;;26.30;94.90;;;;;;5036128;28;20306;-46
2023/03/13 02:31:05;;;;;;;8.30;5.28;;;26.30;94.90;;;;;;5025003;28;20038;-53
2023/03/13 02:33:38;;;;;;;10.10;5.22;;;26.30;94.90;;;;;;5014448;28;20033;-49
2023/03/13 02:36:07;;;;;;;;;;;26.30;94.90;;;;;;5023684;28;20092;-51
2023/03/13 02:38:44;;;;;;;9.30;5.20;;;26.30;94.80;;;;;;5033134;28;20248;-48
2023/03/13 02:41:15;;;;;;;9.75;5.05;;;26.30;94.80;;;;;;5025621;28;20034;-55
2023/03/13 02:44:07;;;;;;;12.55;5.72;;;26.30;94.90;;;;;;5022059;28;20045;-54
2023/03/13 02:46:44;;;;;;;8.85;5.22;;;26.30;94.80;;;;;;5025136;28;20223;-50
2023/03/13 02:49:20;;;;;;;9.40;4.88;;;26.30;94.70;;;;;;5023250;28;20033;-46
2023/03/13 02:51:47;;;;;;;11.90;5.47;;;26.30;94.70;;;;;;5022824;28;20038;-45
2023/03/13 02:54:25;;;;;;;9.20;5.18;;;26.30;94.60;;;;;;5005262;28;20208;-50
2023/03/13 02:56:56;;;;;;;11.82;5.50;;;26.30;94.60;;;;;;5005071;28;20077;-50
2023/03/13 02:59:25;;;;;;;9.40;5.00;;;26.30;94.60;;;;;;5004938;28;20014;-47
2023/03/13 03:01:52;;;;;;;8.55;5.20;;;26.30;94.50;;;;;;5004745;28;20049;-49
2023/03/13 03:04:20;;;;;;;11.68;5.25;;;26.30;94.40;;;;;;5004475;28;20056;-51
2023/03/13 03:06:47;;;;;;;15.10;5.20;;;26.30;94.40;;;;;;5005177;28;20050;-50
2023/03/13 03:09:14;;;;;;;9.88;5.45;;;26.30;94.40;;;;;;5004622;28;20317;-53
2023/03/13 03:11:41;;;;;;;9.77;5.88;;;26.20;94.30;;;;;;5004662;28;20019;-50
2023/03/13 03:14:09;;;;;;;11.18;5.30;;;26.20;94.30;;;;;;5004600;28;20045;-47
2023/03/13 03:16:36;;;;;;;11.73;6.00;;;26.30;94.40;;;;;;5004999;28;20202;-52
2023/03/13 03:19:03;;;;;;;11.52;5.38;;;26.30;94.30;;;;;;5004548;28;20026;-48
2023/03/13 03:21:30;;;;;;;8.02;5.07;;;26.20;94.30;;;;;;5005036;28;20261;-50
2023/03/13 03:23:56;;;;;;;8.60;4.70;;;26.20;94.30;;;;;;5005040;28;20370;-54
2023/03/13 03:26:23;;;;;;;10.10;5.30;;;26.20;94.30;;;;;;5023350;28;20049;-45
2023/03/13 03:28:50;;;;;;;11.20;4.95;;;26.20;94.20;;;;;;5024116;28;20014;-49
2023/03/13 03:31:19;;;;;;;12.73;5.00;;;26.20;94.30;;;;;;5023351;28;20214;-47
2023/03/13 03:33:46;;;;;;;9.30;5.25;;;26.20;94.20;;;;;;5023822;28;20026;-55
2023/03/13 03:36:15;;;;;;;12.70;5.28;;;26.30;94.20;;;;;;5024013;28;20037;-52
2023/03/13 03:38:42;;;;;;;8.40;5.10;;;26.20;94.10;;;;;;5023982;28;20322;-51
2023/03/13 03:41:11;;;;;;;10.52;4.60;;;26.20;94.10;;;;;;5024181;28;20092;-50
2023/03/13 03:43:38;;;;;;;8.23;4.63;;;26.20;94.00;;;;;;5023838;28;20080;-51
2023/03/13 03:46:04;;;;;;;9.18;4.75;;;26.20;94.00;;;;;;5024167;28;20030;-54
2023/03/13 03:48:31;;;;;;;11.18;5.00;;;26.20;93.90;;;;;;5023870;28;20017;-51
2023/03/13 03:50:58;;;;;;;11.73;4.88;;;26.20;93.90;;;;;;5026789;28;20030;-48
2023/03/13 03:53:25;;;;;;;10.77;4.75;;;26.20;93.80;;;;;;5027766;28;20049;-50
2023/03/13 03:55:52;;;;;;;8.75;4.43;;;26.20;93.80;;;;;;5028463;28;20125;-59
2023/03/13 03:58:21;;;;;;;9.02;4.63;;;26.20;93.60;;;;;;5027992;28;20076;-52
2023/03/13 04:00:52;;;;;;;10.65;5.00;;;26.20;93.70;;;;;;5028187;28;20190;-51
2023/03/13 04:03:18;;;;;;;10.82;4.97;;;26.20;93.70;;;;;;5028470;28;20030;-52
2023/03/13 04:05:45;;;;;;;11.57;5.45;;;26.20;93.60;;;;;;5028148;28;20025;-49
2023/03/13 04:08:11;;;;;;;12.32;5.88;;;26.20;93.60;;;;;;5027882;28;20032;-49
2023/03/13 04:10:38;;;;;;;10.07;5.25;;;26.20;93.60;;;;;;5027334;28;20033;-49
2023/03/13 04:13:06;;;;;;;11.18;5.18;;;26.20;93.60;;;;;;5025150;28;20018;-56
2023/03/13 04:15:32;;;;;;;10.77;5.25;;;26.20;93.50;;;;;;5027588;28;20045;-47
2023/03/13 04:17:59;;;;;;;9.63;4.82;;;26.20;93.50;;;;;;5027741;28;20029;-44
2023/03/13 04:20:27;;;;;;;7.95;4.72;;;26.20;93.50;;;;;;5027350;28;20086;-47
2023/03/13 04:22:54;;;;;;;9.43;5.13;;;26.10;93.50;;;;;;5027810;28;20226;-47
2023/03/13 04:25:20;;;;;;;12.57;4.88;;;26.20;93.50;;;;;;5027014;28;20314;-45
2023/03/13 04:27:47;;;;;;;10.48;5.13;;;26.20;93.50;;;;;;5027078;28;20038;-52
2023/03/13 04:30:14;;;;;;;10.77;4.60;;;26.10;93.50;;;;;;5027141;28;20020;-50
2023/03/13 04:32:41;;;;;;;9.45;4.90;;;26.10;93.50;;;;;;5027257;28;20026;-47
2023/03/13 04:35:08;;;;;;;10.18;4.80;;;26.10;93.50;;;;;;5027056;28;20065;-44
2023/03/13 04:37:34;;;;;;;8.70;4.80;;;26.10;93.50;;;;;;5027219;28;20033;-47
2023/03/13 04:40:01;;;;;;;8.55;4.97;;;26.10;93.50;;;;;;5026693;28;20026;-46
2023/03/13 04:42:28;;;;;;;11.45;4.88;;;26.10;93.70;;;;;;5026987;28;20054;-46
2023/03/13 04:44:54;;;;;;;13.18;4.57;;;26.10;93.50;;;;;;5026761;28;20026;-52
2023/03/13 04:47:21;;;;;;;10.90;4.90;;;26.10;93.60;;;;;;5026868;28;20038;-48
2023/03/13 04:49:48;;;;;;;11.27;4.85;;;26.10;93.50;;;;;;5026715;28;20018;-48
2023/03/13 04:52:14;;;;;;;9.38;4.93;;;26.10;93.60;;;;;;5026835;28;20046;-47
2023/03/13 04:54:41;;;;;;;11.30;5.35;;;26.10;93.50;;;;;;5026576;28;20071;-45
2023/03/13 04:57:07;;;;;;;12.32;5.25;;;26.10;93.50;;;;;;5026787;28;20025;-48
2023/03/13 04:59:34;;;;;;;8.40;4.28;;;26.10;93.50;;;;;;5026500;28;20033;-44
2023/03/13 05:02:01;;;;;;;9.25;4.63;;;26.10;93.40;;;;;;5026430;28;20102;-46
2023/03/13 05:04:27;;;;;;;8.02;4.72;;;26.10;93.50;;;;;;5026454;28;20038;-49
2023/03/13 05:06:54;;;;;;;8.75;4.85;;;26.10;93.50;;;;;;5026538;28;20145;-51
2023/03/13 05:09:20;;;;;;;11.45;4.68;;;26.10;93.50;;;;;;5026501;28;20037;-50
2023/03/13 05:11:49;;;;;;;10.60;4.80;;;26.10;93.50;;;;;;5026533;28;20060;-50
2023/03/13 05:14:18;;;;;;;9.35;4.60;;;26.10;93.50;;;;;;5026390;28;20428;-55
2023/03/13 05:16:44;;;;;;;9.95;4.55;;;26.10;93.50;;;;;;5026205;28;20048;-48
2023/03/13 05:19:11;;;;;;;6.68;4.47;;;26.10;93.60;;;;;;5026159;28;20033;-51
2023/03/13 05:21:37;;;;;;;10.15;4.60;;;26.00;93.50;;;;;;5026199;28;20030;-50
2023/03/13 05:24:04;;;;;;;10.50;4.97;;;26.10;93.60;;;;;;5021764;28;20038;-59
2023/03/13 05:26:31;;;;;;;9.00;4.72;;;26.10;93.60;;;;;;5017137;28;20022;-47
2023/03/13 05:28:57;;;;;;;9.98;4.47;;;26.00;93.50;;;;;;5024655;28;20057;-50
2023/03/13 05:31:24;;;;;;;8.25;4.88;;;26.00;93.50;;;;;;5026103;28;20306;-51
2023/03/13 05:33:50;;;;;;;14.05;5.03;;;26.00;93.40;;;;;;5025808;28;20021;-49
2023/03/13 05:36:17;;;;;;;6.88;4.57;;;26.00;93.50;;;;;;5026030;28;20036;-57
2023/03/13 05:38:44;;;;;;;10.18;4.82;;;26.10;93.60;;;;;;5025672;28;20029;-50
2023/03/13 05:41:10;;;;;;;12.60;5.10;;;26.00;93.50;;;;;;5025597;28;20252;-52
2023/03/13 05:43:37;;;;;;;13.02;5.40;;;26.00;93.50;;;;;;5025587;28;20046;-53
2023/03/13 05:46:03;;;;;;;8.95;5.00;;;26.00;93.50;;;;;;5025645;28;20025;-53
2023/03/13 05:48:30;;;;;;;9.52;4.93;;;26.00;93.50;;;;;;5025967;28;20057;-47
2023/03/13 05:50:58;;;;;;;11.02;5.15;;;26.00;93.40;;;;;;5025653;28;20242;-49
2023/03/13 05:53:24;;;;;;;10.75;4.95;;;26.00;93.40;;;;;;5025923;28;20344;-53
2023/03/13 05:55:51;;;;;;;10.20;5.07;;;26.00;93.40;;;;;;5025373;28;20356;-48
2023/03/13 05:58:17;;;;;;;11.15;4.97;;;26.00;93.40;;;;;;5025923;28;20294;-48
2023/03/13 06:00:44;;;;;;;11.10;5.07;;;26.00;93.30;;;;;;5025540;28;20381;-49
2023/03/13 06:03:11;;;;;;;10.73;5.20;;;26.00;93.30;;;;;;5025683;28;20026;-53
2023/03/13 06:05:37;;;;;;;10.80;4.35;;;26.00;93.20;;;;;;5025208;28;20217;-53
2023/03/13 06:08:04;;;;;;;7.30;4.63;;;25.90;93.20;;;;;;5025289;28;20037;-48
2023/03/13 06:10:31;;;;;;;9.57;4.70;;;26.00;93.50;;;;;;5025252;28;20021;-49
2023/03/13 06:12:57;;;;;;;9.13;4.45;;;25.90;93.10;;;;;;5024899;28;20302;-51
2023/03/13 06:15:24;;;;;;;6.85;4.95;;;25.90;93.10;;;;;;5025138;28;20042;-50
2023/03/13 06:17:50;;;;;;;6.70;4.72;;;25.90;93.10;;;;;;5025305;28;20034;-52
2023/03/13 06:20:17;;;;;;;6.53;4.75;;;25.90;93.00;;;;;;5025032;28;20022;-50
2023/03/13 06:22:43;;;;;;;8.70;4.95;;;26.00;93.00;;;;;;5024928;28;20030;-52
2023/03/13 06:25:10;;;;;;;11.82;4.80;;;25.90;92.90;;;;;;5024819;28;20105;-48
2023/03/13 06:27:37;;;;;;;9.88;5.18;;;25.90;92.90;;;;;;5025125;28;20286;-45
2023/03/13 06:30:04;;;;;;;11.90;5.00;;;25.90;92.90;;;;;;5024960;28;20036;-52
2023/03/13 06:32:30;;;;;;;8.25;4.63;;;25.90;92.80;;;;;;5024965;28;20096;-54
2023/03/13 06:34:57;;;;;;;13.63;5.10;;;25.90;92.80;;;;;;5024718;28;20030;-50
2023/03/13 06:37:23;;;;;;;8.77;4.82;;;25.90;92.90;;;;;;5024990;28;20237;-53
2023/03/13 06:39:51;;;;;;;11.57;4.80;;;25.90;92.90;;;;;;5024637;28;20064;-57
2023/03/13 06:42:18;;;;;;;11.27;4.90;;;25.90;92.90;;;;;;5024627;28;20109;-46
2023/03/13 06:44:44;;;;;;;9.90;5.18;;;25.90;92.90;;;;;;5024518;28;20069;-46
2023/03/13 06:47:11;;;;;;;10.00;4.80;;;25.90;92.90;;;;;;5024849;28;20025;-51
2023/03/13 06:49:37;;;;;;;10.70;4.90;;;25.90;92.80;;;;;;5024357;28;20051;-50
2023/03/13 06:52:04;;;;;;;6.80;4.75;;;25.90;92.80;;;;;;5024683;28;20014;-49
2023/03/13 06:54:31;;;;;;;7.82;5.00;;;25.90;92.90;;;;;;5024536;28;20073;-51
2023/03/13 06:56:57;;;;;;;10.23;4.97;;;25.90;92.90;;;;;;5024371;28;20369;-50
2023/03/13 06:59:24;;;;;;;8.40;4.95;;;25.90;92.90;;;;;;5024440;28;20029;-51
2023/03/13 07:01:50;;;;;;;8.70;5.22;;;25.90;92.80;;;;;;5024534;28;20037;-52
2023/03/13 07:04:17;;;;;;;8.60;5.05;;;25.80;92.80;;;;;;5024220;28;20022;-50
2023/03/13 07:06:44;;;;;;;10.02;5.28;;;25.90;92.90;;;;;;5024077;28;20372;-50
2023/03/13 07:09:10;;;;;;;9.52;5.00;;;25.90;92.90;;;;;;5024709;28;20018;-52
2023/03/13 07:11:37;;;;;;;8.43;4.70;;;25.90;93.20;;;;;;5024185;28;20064;-52
2023/03/13 07:14:03;;;;;;;9.35;5.40;;;25.90;93.00;;;;;;5024444;28;20032;-54
2023/03/13 07:16:30;;;;;;;11.18;4.95;;;25.90;93.00;;;;;;5024143;28;20048;-52
2023/03/13 07:18:57;;;;;;;8.10;5.15;;;25.80;93.00;;;;;;5023951;28;20038;-43
2023/03/13 07:21:23;;;;;;;9.73;5.30;;;25.90;93.10;;;;;;5024056;28;20021;-49
2023/03/13 07:23:50;;;;;;;7.97;5.20;;;25.90;93.10;;;;;;5023569;28;20067;-46
2023/03/13 07:26:16;;;;;;;10.48;5.18;;;25.90;93.10;;;;;;5023453;28;20030;-46
2023/03/13 07:28:43;;;;;;;11.30;4.93;;;25.90;93.20;;;;;;5024122;28;20087;-45
2023/03/13 07:31:16;;;;;;;7.07;5.03;;;25.80;93.20;;;;;;5023968;28;20022;-52
2023/03/13 07:33:43;;;;;;;12.68;4.70;;;25.90;93.20;;;;;;5024101;28;20022;-56
2023/03/13 07:36:11;;;;;;;10.35;4.90;;;25.80;93.20;;;;;;5024073;28;20034;-52
2023/03/13 07:38:38;;;;;;;6.35;4.40;;;25.80;93.20;;;;;;5023887;28;20029;-50
2023/03/13 07:41:05;;;;;;;11.38;5.38;;;25.80;93.20;;;;;;5023880;28;20025;-51
2023/03/13 07:43:32;;;;;;;11.25;5.10;;;25.80;93.20;;;;;;5023940;28;20088;-49
2023/03/13 07:46:04;;;;;;;12.25;5.20;;;25.80;93.20;;;;;;5023871;28;20025;-50
2023/03/13 07:48:33;;;;;;;8.60;4.90;;;25.80;93.20;;;;;;5024247;28;20049;-50
2023/03/13 07:50:59;;;;;;;11.85;5.63;;;25.80;93.20;;;;;;5023884;28;20218;-50
2023/03/13 07:53:27;;;;;;;7.50;4.70;;;25.80;93.20;;;;;;5024333;28;20290;-47
2023/03/13 07:56:06;;;;;;;8.15;5.15;;;25.80;93.10;;;;;;5023654;28;20053;-49
2023/03/13 07:58:35;;;;;;;9.63;5.32;;;25.80;93.10;;;;;;5024295;28;20333;-51
2023/03/13 08:01:12;;;;;;;12.20;5.03;;;25.80;93.10;;;;;;5018530;28;20399;-47
2023/03/13 08:03:39;;;;;;;10.00;5.05;;;25.80;93.00;;;;;;5004388;28;20337;-50
2023/03/13 08:06:09;;;;;;;9.35;5.50;;;25.80;93.00;;;;;;5004061;28;20041;-51
2023/03/13 08:08:37;;;;;;;6.75;5.13;;;25.80;93.00;;;;;;5004517;28;20057;-47
2023/03/13 08:11:06;;;;;;;12.40;5.40;;;25.80;93.00;;;;;;5004054;28;20010;-47
2023/03/13 08:13:34;;;;;;;11.65;5.28;;;25.80;92.90;;;;;;5004436;28;20041;-49
2023/03/13 08:16:21;;;;;;;9.00;5.28;;;25.80;92.90;;;;;;5004072;28;20046;-46
2023/03/13 08:18:51;;;;;;;12.73;5.40;;;25.80;92.90;;;;;;5004004;28;20106;-46
2023/03/13 08:21:20;;;;;;;10.43;5.40;;;25.80;92.90;;;;;;5003907;28;20022;-44
2023/03/13 08:23:47;;;;;;;9.57;5.35;;;25.80;92.90;;;;;;5004121;28;20357;-49
2023/03/13 08:26:17;;;;;;;13.95;5.75;;;25.80;92.80;;;;;;5003616;28;20034;-48
2023/03/13 08:28:45;;;;;;;8.10;5.10;;;25.80;92.70;;;;;;5004019;28;20018;-57
2023/03/13 08:31:18;;;;;;;9.70;5.53;;;25.80;92.70;;;;;;5003774;28;20034;-49
2023/03/13 08:33:46;;;;;;;10.52;6.18;;;25.80;92.70;;;;;;5003703;28;20030;-48
2023/03/13 08:36:16;;;;;;;10.95;5.43;;;25.80;92.70;;;;;;5005316;28;20399;-46
2023/03/13 08:38:44;;;;;;;9.70;5.88;;;25.80;92.60;;;;;;5007354;28;20036;-51
2023/03/13 08:41:16;;;;;;;12.32;5.60;;;25.80;92.60;;;;;;5007130;28;20032;-49
2023/03/13 08:43:43;;;;;;;10.52;5.72;;;25.80;92.50;;;;;;5007146;28;20128;-50
2023/03/13 08:46:10;;;;;;;8.75;4.80;;;25.80;92.50;;;;;;5007109;28;20073;-45
2023/03/13 08:48:37;;;;;;;9.88;5.93;;;25.80;92.40;;;;;;5007079;28;20057;-51
2023/03/13 08:51:09;;;;;;;10.52;5.50;;;25.80;92.40;;;;;;5007232;28;20027;-48
2023/03/13 08:53:38;;;;;;;11.77;5.75;;;25.80;92.20;;;;;;5007354;28;20222;-50
2023/03/13 08:56:05;;;;;;;7.20;5.10;;;25.80;92.20;;;;;;5006996;28;20053;-56
2023/03/13 08:58:32;;;;;;;7.18;5.53;;;25.90;92.10;;;;;;5007421;28;20061;-50
2023/03/13 09:01:07;;;;;;;8.60;5.43;;;25.90;92.10;;;;;;5006843;28;20030;-46
2023/03/13 09:03:34;;;;;;;8.80;5.95;;;25.80;92.00;;;;;;5007352;28;20294;-44
2023/03/13 09:06:02;;;;;;;9.88;5.60;;;25.90;92.10;;;;;;5006856;28;20026;-43
2023/03/13 09:08:30;;;;;;;9.95;5.18;;;25.80;92.10;;;;;;5007121;28;20026;-48
2023/03/13 09:11:02;;;;;;;7.32;5.38;;;25.80;92.10;;;;;;5006890;28;20081;-50
2023/03/13 09:13:30;;;;;;;11.48;6.38;;;25.80;92.10;;;;;;5007114;28;20038;-48
2023/03/13 09:16:01;;;;;;;10.15;5.45;;;25.80;92.10;;;;;;5006482;28;20097;-51
2023/03/13 09:18:29;;;;;;;8.05;5.70;;;25.80;92.20;;;;;;5007057;28;20090;-55
2023/03/13 09:20:56;;;;;;;10.00;5.88;;;25.80;92.20;;;;;;5006420;28;20315;-50
2023/03/13 09:23:24;;;;;;;9.50;5.68;;;25.80;92.20;;;;;;5006945;28;20030;-51
2023/03/13 09:25:55;;;;;;;12.10;5.63;;;25.80;92.30;;;;;;5006412;28;20035;-51
2023/03/13 09:28:24;;;;;;;11.93;5.60;;;25.80;92.30;;;;;;5006302;28;20287;-54
2023/03/13 09:30:51;;;;;;;8.88;5.55;;;25.80;92.30;;;;;;5006352;28;20089;-45
2023/03/13 09:33:19;;;;;;;9.77;5.68;;;25.80;92.40;;;;;;5006730;28;20037;-51
2023/03/13 09:35:49;;;;;;;10.88;5.72;;;25.70;92.40;;;;;;5006126;28;20034;-53
2023/03/13 09:38:20;;;;;;;13.95;5.60;;;25.80;92.40;;;;;;5006689;28;20216;-54
2023/03/13 09:40:49;;;;;;;11.43;5.78;;;25.70;92.50;;;;;;5006192;28;20403;-55
2023/03/13 09:43:39;;;;;;;13.35;5.28;;;25.80;92.60;;;;;;5006011;28;20065;-48
2023/03/13 09:46:29;;;;;;;13.13;6.05;;;25.70;92.60;;;;;;4966450;28;20373;-54
2023/03/13 09:49:03;;;;;;;10.30;5.22;;;25.80;92.70;;;;;;4965622;28;20106;-48
2023/03/13 09:51:39;;;;;;;8.30;5.70;;;25.70;92.70;;;;;;5005845;28;20045;-51
2023/03/13 09:54:22;;;;;;;10.15;5.70;;;25.70;92.80;;;;;;5005957;28;20337;-50
2023/03/13 09:57:20;;;;;;;11.48;5.68;;;25.70;92.70;;;;;;5007547;28;20112;-51
2023/03/13 09:59:56;;;;;;;9.77;5.78;;;25.70;92.80;;;;;;5011396;28;20042;-52
2023/03/13 10:02:33;;;;;;;10.60;5.47;;;25.70;92.80;;;;;;5025584;28;20034;-47
2023/03/13 10:05:09;;;;;;;8.88;5.50;;;25.70;92.80;;;;;;5025277;28;20021;-52
2023/03/13 10:07:36;;;;;;;13.68;5.90;;;25.70;92.70;;;;;;5025590;28;20034;-53
2023/03/13 10:10:06;;;;;;;13.20;6.25;;;25.70;92.70;;;;;;5025328;28;20072;-55
2023/03/13 10:12:40;;;;;;;14.50;5.78;;;25.70;92.60;;;;;;5025283;28;20048;-61
2023/03/13 10:15:15;;;;;;;11.65;6.25;;;25.70;92.60;;;;;;5025144;28;20029;-51
2023/03/13 10:17:42;;;;;;;10.25;6.00;;;25.70;92.60;;;;;;5025484;28;20021;-55
2023/03/13 10:20:26;;;;;;;11.23;6.03;;;25.70;92.60;;;;;;5024979;28;20037;-49
2023/03/13 10:23:07;;;;;;;9.52;5.70;;;25.70;92.50;;;;;;5025305;28;20072;-52
2023/03/13 10:25:37;;;;;;;10.68;5.82;;;25.80;92.50;;;;;;5024845;28;20046;-53
2023/03/13 10:28:05;;;;;;;7.90;5.93;;;25.70;92.50;;;;;;5025447;28;20024;-49
2023/03/13 10:30:35;;;;;;;10.30;5.70;;;25.70;92.40;;;;;;5023667;28;20061;-51
2023/03/13 10:33:07;;;;;;;10.45;6.07;;;25.70;92.40;;;;;;5025277;28;20026;-52
2023/03/13 10:35:42;;;;;;;12.95;6.20;;;25.70;92.50;;;;;;5018310;28;20041;-48
2023/03/13 10:38:08;;;;;;;9.18;5.60;;;25.70;92.50;;;;;;5011798;28;20030;-49
2023/03/13 10:40:36;;;;;;;10.60;6.32;;;25.70;92.50;;;;;;5096704;23;20056;-48
2023/03/13 10:43:24;;;;;;;8.55;6.35;;;25.70;92.50;;;;;;5044305;28;20021;-53
2023/03/13 10:45:51;;;;;;;12.77;6.60;;;25.70;92.50;;;;;;5044431;28;20033;-43
2023/03/13 10:48:23;;;;;;;11.13;6.68;;;25.70;92.50;;;;;;5043873;28;20009;-48
2023/03/13 10:50:58;;;;;;;10.00;6.70;;;25.70;92.50;;;;;;5044275;28;20055;-50
2023/03/13 10:53:31;;;;;;;12.60;7.18;;;25.70;92.40;;;;;;5044127;28;20025;-56
2023/03/13 10:56:03;;;;;;;11.30;6.63;;;25.80;92.40;;;;;;5044378;28;20052;-50
2023/03/13 10:58:44;;;;;;;9.98;6.45;;;25.70;92.40;;;;;;5043935;28;20021;-53
2023/03/13 11:01:27;;;;;;;10.82;7.00;;;25.70;92.40;;;;;;5042089;28;20029;-51
2023/03/13 11:03:56;;;;;;;13.00;7.03;;;25.70;92.40;;;;;;5044190;28;20033;-57
2023/03/13 11:06:35;;;;;;;11.48;6.80;;;25.70;92.40;;;;;;5043927;28;20309;-52
2023/03/13 11:09:15;;;;;;;12.02;6.95;;;25.70;92.40;;;;;;5044232;28;20021;-50
2023/03/13 11:12:00;;;;;;;11.77;6.90;;;25.70;92.30;;;;;;5042426;28;20026;-54
2023/03/13 11:14:28;;;;;;;12.90;7.05;;;25.70;92.30;;;;;;5015281;28;20017;-50
2023/03/13 11:17:20;;;;;;;13.18;6.75;;;25.70;92.30;;;;;;5039817;28;20026;-53
2023/03/13 11:19:52;;;;;;;10.93;7.18;;;25.80;92.30;;;;;;5043915;28;20136;-54
2023/03/13 11:22:24;;;;;;;11.95;6.80;;;25.80;92.30;;;;;;5043368;28;20146;-51
2023/03/13 11:25:00;;;;;;;13.63;7.20;;;25.80;92.20;;;;;;5044107;28;20029;-53
2023/03/13 11:27:45;;;;;;;15.70;8.60;;;25.80;92.30;;;;;;5042080;28;20363;-51
2023/03/13 11:30:40;;;;;;;15.45;8.95;;;25.80;92.30;;;;;;5044312;28;20018;-48
2023/03/13 11:33:37;;;;;;;12.93;8.18;;;25.80;92.30;;;;;;5024725;28;20303;-52
2023/03/13 11:36:27;;;;;;;21.98;9.20;;;25.80;92.20;;;;;;5043748;28;20052;-49
2023/03/13 11:39:30;;;;;;;16.00;8.20;;;25.80;92.20;;;;;;5043393;28;20105;-49
2023/03/13 11:42:09;;;;;;;15.82;8.57;;;25.90;92.30;;;;;;5017665;28;20049;-48
2023/03/13 11:44:57;;;;;;;14.38;8.40;;;25.90;92.30;;;;;;5004872;28;20048;-51
2023/03/13 11:47:33;;;;;;;18.88;8.80;;;25.90;92.30;;;;;;5004176;28;20164;-49
2023/03/13 11:50:06;;;;;;;19.50;8.80;;;25.90;92.40;;;;;;5004610;28;20030;-47
2023/03/13 11:52:35;;;;;;;16.70;8.77;;;25.90;92.50;;;;;;5004057;28;20064;-55
2023/03/13 11:55:26;;;;;;;12.85;8.27;;;25.90;92.50;;;;;;5004523;28;20096;-51
2023/03/13 11:58:08;;;;;;;11.50;7.97;;;25.90;92.50;;;;;;5003972;28;20085;-50
2023/03/13 12:00:58;;;;;;;12.95;8.27;;;25.90;92.60;;;;;;5004573;28;20227;-51
2023/03/13 12:03:58;;;;;;;12.82;8.43;;;25.90;92.70;;;;;;4994135;28;20027;-47
2023/03/13 12:06:33;;;;;;;13.68;8.70;;;25.90;92.70;;;;;;5003807;28;20033;-52
2023/03/13 12:09:03;;;;;;;15.30;8.75;;;25.90;92.80;;;;;;5004296;28;20072;-48
2023/03/13 12:11:54;;;;;;;10.95;8.80;;;25.90;92.90;;;;;;5005823;28;20023;-54
2023/03/13 12:14:33;;;;;;;14.20;10.65;;;25.90;92.90;;;;;;5007932;28;20014;-51
2023/03/13 12:17:09;;;;;;;16.33;11.38;;;25.90;93.00;;;;;;5007874;28;20089;-46
2023/03/13 12:19:52;;;;;;;15.82;11.40;;;25.90;93.00;;;;;;5007967;28;20026;-51
2023/03/13 12:22:45;;;;;;;15.75;10.60;;;25.90;93.30;;;;;;5007605;28;20070;-52
2023/03/13 12:25:21;;;;;;;15.88;10.23;;;25.90;93.10;;;;;;5007769;28;20022;-46
2023/03/13 12:27:57;;;;;;;13.27;9.27;;;25.90;93.10;;;;;;5007613;28;20038;-53
2023/03/13 12:30:37;;;;;;;28.25;10.93;;;26.00;93.10;;;;;;5007807;28;20056;-49
2023/03/13 12:33:44;;;;;;;14.05;9.90;;;26.00;93.30;;;;;;5007322;28;20030;-47
2023/03/13 12:36:32;;;;;;;23.73;10.23;;;26.00;93.30;;;;;;5003723;28;20058;-50
2023/03/13 12:39:32;;;;;;;19.80;10.40;;;26.00;93.30;;;;;;5007181;28;20034;-46
2023/03/13 12:42:43;;;;;;;24.45;10.68;;;26.10;93.40;;;;;;5007134;28;20106;-50
2023/03/13 12:45:22;;;;;;;14.07;10.25;;;26.10;93.40;;;;;;5007257;28;20369;-48
2023/03/13 12:47:59;;;;;;;16.70;11.35;;;26.10;93.50;;;;;;5007055;28;20021;-49
2023/03/13 12:50:50;;;;;;;13.13;9.98;;;26.10;93.60;;;;;;5007477;28;20041;-47
2023/03/13 12:53:23;;;;;;;18.67;10.30;;;26.10;93.70;;;;;;5006995;28;20019;-51
2023/03/13 12:56:06;;;;;;;18.08;10.32;;;26.10;93.70;;;;;;5006700;28;20076;-55
2023/03/13 12:58:55;;;;;;;16.25;9.70;;;26.10;93.80;;;;;;5006777;28;20038;-48
2023/03/13 13:01:44;;;;;;;17.30;10.40;;;26.10;93.80;;;;;;5006758;28;20038;-50
2023/03/13 13:04:14;;;;;;;14.23;10.05;;;26.10;93.90;;;;;;5006782;28;20022;-48